ESNN

Sundsvall-Härnösand Airport

Sundsvall/ Härnösand, Sweden
METAR ESNN 192150Z VRB01KT CAVOK M04/M05 Q1036 R16/75//70
Observed Flight Rules
Nov-19 @ 21:50 UTC (37 minutes ago) Visual Flight Rules
Wind Visibility Clouds
Variable at 1 knots 10,000+ meters
  • Clear skies
Temperatures Readings
Current -4°C / 25°F
Dewpoint -5°C / 23°F
Humidity 93%
Altimeter 30.59" Hg
Pressure 1036 hPa
Elevation 10
METAR ESNN 192150Z VRB01KT CAVOK M04/M05 Q1036 R16/75//70
Observed Flight Rules
Nov-19 @ 21:50 UTC
(37 minutes ago)
VFR
Wind Visibility
Variable at 1 knots 10,000+ meters
Clouds
  • Clear skies
Temperature Dewpoint
-4°C / 25°F -5°C / 23°F
Humidity Altimeter Pressure
93% 30.59" Hg 1036 hPa